Weather at 9 Newsport Heliport

Public forecast

Using degrees Fahrenheit for public forecast. Weather courtesy of forecast.io.

Closest aviation weather report (METAR) to 9 Newsport Heliport

Closest report is Cincinnati Municipal Airport Lunken Field, 4.5 nm (8.4 km) ENE. Retrieved 2021/06/25 03:53 UTC (15 minutes ago):

KLUK 250353Z AUTO 20003KT 10SM CLR 19/18 A3009 RMK AO2 SLP184 T01940183

Closest aviation forecast (TAF) to 9 Newsport Heliport

Closest forecast is Cincinnati Municipal Airport Lunken Field, 4.5 nm (8.4 km) ENE. Retrieved 2021-06-25 00:48 UTC (3 hours ago):

TAF KLUK 242345Z 2500/2524 18008KT P6SM SCT050 BKN250 FM250700 18004KT P6SM VCSH BKN040 OVC120 FM251200 19008KT P6SM OVC040 FM251600 19013G21KT 5SM -SHRA VCTS BKN040CB OVC200 FM252000 18013G23KT P6SM -SHRA SCT040 BKN150 FM252200 18014G28KT P6SM FEW040 BKN200